CheckWX is a tool to help pilots better visualize weather data.  It is not intended as a substitute for an official pre-flight weather briefing.

08:04:00 UTC

KAVL METAR
Asheville Regional Airport
Asheville, North Carolina, USA
Current

10 mins ago

KAVL 230754Z AUTO 34003KT 10SM CLR M02/M05 A3028 RMK AO2 SLP254 T10171050 $
Observed
Feb-23 @ 07:54 UTC
Wind
  • 340° at 3 KTS
Visibility
10 SM
Flight Rules
VFR
Cloud Levels
  • Clear skies
Temperature
-2°C / 28°F
Dewpoint
-5°C / 23°F
Humidity
80%
Altimeter
30.28" Hg
Pressure
1025.42 hPa
Previous

1 hour ago

KAVL 230654Z AUTO 00000KT 10SM CLR M01/M05 A3028 RMK AO2 SLP257 T10111050 $
Observed
Feb-23 @ 06:54 UTC
Visibility
10 SM
Flight Rules
VFR
Cloud Levels
  • Clear skies
Temperature
-1°C / 30°F
Dewpoint
-5°C / 23°F
Humidity
75%
Altimeter
30.28" Hg
Pressure
1025.42 hPa
Previous

2 hours ago

KAVL 230554Z AUTO 00000KT 10SM CLR M01/M05 A3030 RMK AO2 SLP262 T10111050 10083 21011 58005
Observed
Feb-23 @ 05:54 UTC
Visibility
10 SM
Flight Rules
VFR
Cloud Levels
  • Clear skies
Temperature
-1°C / 30°F
Dewpoint
-5°C / 23°F
Humidity
75%
Altimeter
30.3" Hg
Pressure
1026.12 hPa